Time;durP1;ratioP1;P1;durP2;ratioP2;P2;SDS_P1;SDS_P2;PMS_P1;PMS_P2;Temp;Humidity;BMP_temperature;BMP_pressure;BME280_temperature;BME280_humidity;BME280_pressure;Samples;Min_cycle;Max_cycle;Signal;HPM_P1;HPM_P2
2023/09/25 00:00:27;;;;;;;99.00;94.65;;;;;;;17.89;56.20;102006.31;4959646;28;20051;-69
2023/09/25 00:02:53;;;;;;;96.57;92.30;;;;;;;17.88;56.18;102008.22;4962466;28;20031;-68
2023/09/25 00:05:18;;;;;;;99.45;94.47;;;;;;;17.87;56.23;102005.78;4964328;28;20045;-67
2023/09/25 00:07:43;;;;;;;98.90;94.35;;;;;;;17.85;56.15;102011.47;4960057;28;20300;-67
2023/09/25 00:10:09;;;;;;;95.45;91.05;;;;;;;17.84;56.11;102015.31;4963600;28;20407;-67
2023/09/25 00:12:34;;;;;;;95.80;91.38;;;;;;;17.82;56.05;102009.28;4961657;28;20057;-67
2023/09/25 00:15:01;;;;;;;98.45;94.07;;;;;;;17.82;56.05;102008.47;4968851;28;20032;-68
2023/09/25 00:17:27;;;;;;;98.07;93.68;;;;;;;17.81;56.07;102012.25;4959456;28;20039;-68
2023/09/25 00:19:52;;;;;;;97.55;93.25;;;;;;;17.80;56.33;102007.88;4957447;28;20081;-67
2023/09/25 00:22:17;;;;;;;96.32;91.95;;;;;;;17.78;56.47;102012.75;4965252;28;20035;-68
2023/09/25 00:24:43;;;;;;;100.85;96.38;;;;;;;17.77;56.51;102017.41;4967755;28;20493;-68
2023/09/25 00:27:09;;;;;;;96.20;91.85;;;;;;;17.75;56.15;102025.03;4966526;28;20034;-67
2023/09/25 00:29:34;;;;;;;100.03;95.53;;;;;;;17.74;56.09;102013.28;4965751;28;20455;-67
2023/09/25 00:31:59;;;;;;;95.25;91.03;;;;;;;17.73;56.54;102010.78;4968872;28;20031;-67
2023/09/25 00:34:25;;;;;;;94.70;90.47;;;;;;;17.71;56.48;102021.16;4965923;28;20073;-67
2023/09/25 00:36:50;;;;;;;97.13;92.78;;;;;;;17.70;56.06;102022.25;4960992;28;20039;-69
2023/09/25 00:39:16;;;;;;;97.45;93.15;;;;;;;17.68;56.01;102017.03;4960733;28;20050;-68
2023/09/25 00:41:41;;;;;;;97.30;92.85;;;;;;;17.68;56.08;102022.50;4964686;28;20126;-68
2023/09/25 00:44:06;;;;;;;95.90;91.30;;;;;;;17.67;56.55;102018.13;4963441;28;20031;-68
2023/09/25 00:46:32;;;;;;;95.25;91.05;;;;;;;17.66;56.51;102021.94;4969638;28;20067;-68
2023/09/25 00:48:59;;;;;;;94.55;90.45;;;;;;;17.64;56.06;102021.38;4974151;28;20042;-68
2023/09/25 00:51:25;;;;;;;94.38;90.20;;;;;;;17.62;56.00;102018.09;4963846;28;20967;-67
2023/09/25 00:53:51;;;;;;;94.53;90.32;;;;;;;17.63;56.04;102027.09;4967332;28;20221;-67
2023/09/25 00:56:17;;;;;;;92.90;88.80;;;;;;;17.60;56.54;102020.25;4971666;28;20062;-68
2023/09/25 00:58:42;;;;;;;95.93;91.63;;;;;;;17.60;56.55;102024.88;4968458;28;20093;-67
2023/09/25 01:01:08;;;;;;;94.90;90.78;;;;;;;17.58;56.31;102021.59;4967360;28;20043;-67
2023/09/25 01:03:34;;;;;;;92.30;88.22;;;;;;;17.57;56.43;102028.16;4962101;28;20039;-69
2023/09/25 01:06:00;;;;;;;93.72;89.63;;;;;;;17.56;56.11;102026.47;4969633;28;20467;-69
2023/09/25 01:08:25;;;;;;;94.80;90.57;;;;;;;17.53;56.60;102025.91;4960196;28;20090;-68
2023/09/25 01:10:50;;;;;;;92.10;88.00;;;;;;;17.52;56.21;102028.91;4970349;28;20145;-68
2023/09/25 01:13:16;;;;;;;95.00;90.75;;;;;;;17.51;56.29;102021.78;4963831;28;20035;-69
2023/09/25 01:15:41;;;;;;;93.68;89.47;;;;;;;17.49;56.55;102022.06;4967374;28;20096;-67
2023/09/25 01:18:08;;;;;;;93.57;89.38;;;;;;;17.47;56.50;102018.75;4971296;28;20040;-67
2023/09/25 01:20:33;;;;;;;96.63;92.35;;;;;;;17.46;56.08;102019.84;4970002;28;20034;-69
2023/09/25 01:22:58;;;;;;;92.60;88.50;;;;;;;17.45;56.16;102023.66;4963644;28;20380;-69
2023/09/25 01:25:24;;;;;;;94.80;90.40;;;;;;;17.43;56.07;102014.88;4974059;28;20042;-68
2023/09/25 01:27:50;;;;;;;93.35;89.05;;;;;;;17.42;56.22;102017.88;4969427;28;20031;-68
2023/09/25 01:30:17;;;;;;;94.80;90.60;;;;;;;17.41;55.94;102014.34;4963478;28;20396;-68
2023/09/25 01:32:44;;;;;;;93.53;89.03;;;;;;;17.41;56.49;102016.22;4968068;28;20031;-68
2023/09/25 01:35:15;;;;;;;92.97;88.57;;;;;;;17.39;56.02;102019.22;4969006;28;20047;-69
2023/09/25 01:37:42;;;;;;;93.57;89.38;;;;;;;17.38;56.53;102016.75;4962116;28;20030;-67
2023/09/25 01:40:17;;;;;;;92.32;88.28;;;;;;;17.37;56.03;102015.09;4962498;28;20031;-67
2023/09/25 01:42:46;;;;;;;92.28;88.18;;;;;;;17.35;55.96;102015.34;4961238;28;20031;-68
2023/09/25 01:45:13;;;;;;;92.57;88.22;;;;;;;17.33;56.47;102009.31;4963474;28;20078;-67
2023/09/25 01:47:40;;;;;;;94.18;89.78;;;;;;;17.33;56.43;102011.22;4963107;28;20101;-68
2023/09/25 01:50:08;;;;;;;91.72;87.70;;;;;;;17.30;56.29;101999.72;4971329;28;20049;-68
2023/09/25 01:52:34;;;;;;;94.32;90.18;;;;;;;17.29;56.38;102009.00;4970336;28;20043;-66
2023/09/25 01:54:59;;;;;;;93.20;89.07;;;;;;;17.29;56.19;102008.19;4970374;28;20130;-68
2023/09/25 01:57:24;;;;;;;92.10;88.05;;;;;;;17.27;56.08;102008.44;4970129;28;20038;-67
2023/09/25 01:59:50;;;;;;;91.05;87.03;;;;;;;17.26;56.07;102003.22;4962892;28;20051;-67
2023/09/25 02:02:15;;;;;;;95.57;91.32;;;;;;;17.24;56.39;102006.22;4963439;28;20046;-68
2023/09/25 02:04:41;;;;;;;91.78;87.68;;;;;;;17.22;56.33;102002.94;4972046;28;20471;-68
2023/09/25 02:07:06;;;;;;;94.25;90.05;;;;;;;17.21;56.08;101998.56;4971794;28;20082;-69
2023/09/25 02:09:31;;;;;;;92.40;88.18;;;;;;;17.21;56.35;102000.44;4964718;28;20047;-67
2023/09/25 02:11:57;;;;;;;91.65;87.55;;;;;;;17.19;56.29;102006.19;4967076;28;20058;-68
2023/09/25 02:14:22;;;;;;;92.00;87.93;;;;;;;17.17;56.37;101994.69;4961376;28;20085;-68
2023/09/25 02:16:47;;;;;;;91.43;87.22;;;;;;;17.17;55.82;102004.78;4958405;28;20483;-68
2023/09/25 02:19:13;;;;;;;90.85;86.82;;;;;;;17.14;55.92;101997.94;4970446;28;20054;-67
2023/09/25 02:21:38;;;;;;;94.97;90.63;;;;;;;17.14;56.39;101995.19;4968326;28;20085;-69
2023/09/25 02:24:04;;;;;;;89.75;85.75;;;;;;;17.12;55.93;101986.44;4957631;28;20070;-68
2023/09/25 02:26:29;;;;;;;91.40;87.40;;;;;;;17.12;55.95;101988.34;4965836;28;20069;-68
2023/09/25 02:28:55;;;;;;;91.38;87.20;;;;;;;17.10;55.86;101985.88;4969075;28;20073;-70
2023/09/25 02:31:20;;;;;;;89.82;85.82;;;;;;;17.08;56.40;101986.13;4958218;28;20344;-68
2023/09/25 02:33:46;;;;;;;95.03;90.63;;;;;;;17.07;56.14;101987.19;4958477;28;20046;-68
2023/09/25 02:36:12;;;;;;;89.75;85.68;;;;;;;17.06;56.07;101990.19;4958968;28;20541;-67
2023/09/25 02:38:38;;;;;;;85.18;81.43;;;;;;;17.04;56.33;101987.72;4967491;28;20093;-68
2023/09/25 02:41:05;;;;;;;89.32;85.43;;;;;;;17.03;56.31;101983.34;4963613;28;20034;-67
2023/09/25 02:43:30;;;;;;;86.57;82.70;;;;;;;17.01;56.15;101980.03;4965141;28;20035;-67
2023/09/25 02:45:56;;;;;;;93.20;89.00;;;;;;;17.01;56.00;101981.94;4969787;28;20458;-67
2023/09/25 02:48:21;;;;;;;89.38;85.28;;;;;;;17.00;55.90;101991.22;4963930;28;20035;-67
2023/09/25 02:50:47;;;;;;;86.53;82.65;;;;;;;16.99;56.33;101986.84;4960305;28;20030;-68
2023/09/25 02:53:13;;;;;;;86.47;82.68;;;;;;;16.96;56.01;101988.19;4964966;28;20125;-67
2023/09/25 02:55:39;;;;;;;87.70;83.80;;;;;;;16.96;55.96;101979.13;4971787;28;20106;-70
2023/09/25 02:58:04;;;;;;;85.85;81.95;;;;;;;16.94;56.34;101987.59;4967479;28;20185;-69
2023/09/25 03:00:30;;;;;;;89.50;84.68;;;;;;;16.94;55.87;101989.50;4971557;28;20039;-68
2023/09/25 03:02:57;;;;;;;89.60;85.47;;;;;;;16.94;55.83;101989.50;4962580;28;20042;-67
2023/09/25 03:05:23;;;;;;;87.45;83.55;;;;;;;16.92;55.82;101992.47;4970632;28;20038;-67
2023/09/25 03:07:48;;;;;;;87.32;83.38;;;;;;;16.90;56.18;101993.81;4963805;28;20479;-68
2023/09/25 03:10:13;;;;;;;87.82;83.72;;;;;;;16.89;55.78;101984.00;4970177;28;20045;-67
2023/09/25 03:12:40;;;;;;;86.97;83.18;;;;;;;16.87;55.67;101986.97;4966729;28;20031;-68
2023/09/25 03:15:06;;;;;;;88.72;84.82;;;;;;;16.86;55.79;101983.41;4968735;28;20046;-67
2023/09/25 03:17:35;;;;;;;86.50;82.63;;;;;;;16.85;56.04;101986.38;4970617;28;20390;-67
2023/09/25 03:20:09;;;;;;;89.80;85.70;;;;;;;16.83;55.98;101983.09;4964927;28;20027;-67
2023/09/25 03:22:35;;;;;;;86.30;82.50;;;;;;;16.83;55.88;101985.81;4958697;28;20122;-68
2023/09/25 03:25:00;;;;;;;88.97;84.75;;;;;;;16.81;55.98;101979.81;4963192;28;20491;-69
2023/09/25 03:27:26;;;;;;;85.78;81.78;;;;;;;16.81;55.88;101988.00;4968444;28;20085;-68
2023/09/25 03:29:51;;;;;;;86.72;82.75;;;;;;;16.79;56.04;101984.69;4969158;28;20042;-69
2023/09/25 03:32:17;;;;;;;85.72;81.93;;;;;;;16.77;56.33;101982.16;4969041;28;20061;-69
2023/09/25 03:34:42;;;;;;;85.82;81.93;;;;;;;16.77;55.91;101982.16;4970326;28;20097;-68
2023/09/25 03:37:07;;;;;;;84.28;80.57;;;;;;;16.75;55.96;101987.06;4969086;28;20323;-69
2023/09/25 03:39:33;;;;;;;84.93;81.03;;;;;;;16.74;56.09;101985.41;4970106;28;20116;-67
2023/09/25 03:41:58;;;;;;;87.80;83.65;;;;;;;16.72;56.09;101990.28;4959071;28;20035;-69
2023/09/25 03:44:23;;;;;;;89.55;85.35;;;;;;;16.71;55.97;101993.28;4962377;28;20121;-68
2023/09/25 03:46:49;;;;;;;87.38;83.25;;;;;;;16.70;55.82;101987.00;4959810;28;20392;-69
2023/09/25 03:49:14;;;;;;;82.50;78.80;;;;;;;16.68;56.06;101989.13;4969700;28;20114;-67
2023/09/25 03:51:40;;;;;;;84.93;81.07;;;;;;;16.66;56.21;101985.88;4967165;28;20395;-69
2023/09/25 03:54:05;;;;;;;85.47;81.63;;;;;;;16.66;55.73;101994.06;4969039;28;20092;-68
2023/09/25 03:56:31;;;;;;;84.07;80.07;;;;;;;16.65;56.08;101989.66;4966615;28;20391;-67
2023/09/25 03:58:57;;;;;;;85.05;81.13;;;;;;;16.65;56.09;101989.66;4959070;28;20054;-68
2023/09/25 04:01:22;;;;;;;88.15;84.18;;;;;;;16.61;55.78;101989.34;4969456;28;20035;-68
2023/09/25 04:03:47;;;;;;;84.32;80.57;;;;;;;16.62;55.79;101992.91;4969951;28;20027;-69
2023/09/25 04:06:13;;;;;;;86.68;82.68;;;;;;;16.60;56.35;101984.94;4963220;28;20041;-67
2023/09/25 04:08:38;;;;;;;86.72;82.40;;;;;;;16.60;55.96;101989.59;4968028;28;20045;-68
2023/09/25 04:11:04;;;;;;;85.00;81.18;;;;;;;16.58;55.72;101991.72;4969231;28;20035;-68
2023/09/25 04:13:31;;;;;;;86.63;82.65;;;;;;;16.56;55.89;101986.56;4970765;28;20399;-68
2023/09/25 04:15:57;;;;;;;83.07;79.30;;;;;;;16.55;56.31;102003.16;4965318;28;20030;-67
2023/09/25 04:18:23;;;;;;;84.82;80.93;;;;;;;16.54;56.23;101996.88;4969777;28;20046;-67
2023/09/25 04:20:49;;;;;;;84.60;80.28;;;;;;;16.53;56.32;101999.84;4968988;28;20041;-67
2023/09/25 04:23:15;;;;;;;81.90;78.10;;;;;;;16.53;56.16;101994.41;4972865;28;20041;-67
2023/09/25 04:25:41;;;;;;;82.25;78.55;;;;;;;16.52;55.96;101998.22;4967905;28;20102;-67
2023/09/25 04:28:06;;;;;;;83.95;79.95;;;;;;;16.51;56.06;102000.13;4964482;28;20102;-68
2023/09/25 04:30:31;;;;;;;83.70;79.97;;;;;;;16.49;56.20;102002.28;4973758;28;20043;-70
2023/09/25 04:32:57;;;;;;;84.18;80.38;;;;;;;16.50;56.23;102011.28;4970712;28;20105;-68
2023/09/25 04:35:24;;;;;;;81.82;78.13;;;;;;;16.48;55.96;102006.09;4974640;28;20031;-67
2023/09/25 04:37:50;;;;;;;83.88;80.05;;;;;;;16.46;55.96;102002.78;4973732;28;20128;-67
2023/09/25 04:40:22;;;;;;;84.35;80.60;;;;;;;16.44;56.05;102004.94;4961484;28;20034;-67
2023/09/25 04:42:52;;;;;;;84.35;80.57;;;;;;;16.43;55.97;102017.75;4964058;28;20121;-67
2023/09/25 04:45:19;;;;;;;83.90;79.80;;;;;;;16.41;55.75;102017.16;4965519;28;20035;-68
2023/09/25 04:47:48;;;;;;;82.35;78.68;;;;;;;16.39;55.92;102011.13;4965641;28;20066;-68
2023/09/25 04:50:15;;;;;;;82.65;78.85;;;;;;;16.38;56.38;102009.50;4968455;28;20661;-67
2023/09/25 04:52:41;;;;;;;83.78;80.07;;;;;;;16.37;56.01;102018.72;4972824;28;20041;-68
2023/09/25 04:55:10;;;;;;;85.78;81.78;;;;;;;16.38;56.26;102014.13;4971566;28;20026;-68
2023/09/25 04:57:37;;;;;;;84.15;80.30;;;;;;;16.37;56.15;102017.91;4966177;28;20129;-68
2023/09/25 05:02:49;;;;;;;82.07;78.35;;;;;;;16.34;55.83;102013.78;4963707;28;20432;-68
2023/09/25 05:05:15;;;;;;;85.10;80.90;;;;;;;16.33;56.00;102017.59;4970595;28;20043;-68
2023/09/25 05:07:43;;;;;;;82.97;79.28;;;;;;;16.32;56.15;102020.56;4973341;28;20039;-68
2023/09/25 05:10:13;;;;;;;82.17;78.37;;;;;;;16.31;55.99;102024.38;4964501;28;20491;-67
2023/09/25 05:12:39;;;;;;;82.45;78.60;;;;;;;16.29;56.24;102030.06;4971217;28;20062;-68
2023/09/25 05:15:07;;;;;;;83.22;79.13;;;;;;;16.28;55.97;102031.16;4969269;28;20027;-68
2023/09/25 05:17:34;;;;;;;82.97;79.28;;;;;;;16.28;56.16;102028.44;4971560;28;20077;-68
2023/09/25 05:19:59;;;;;;;81.32;77.75;;;;;;;16.27;56.08;102034.13;4966485;28;20031;-69
2023/09/25 05:22:25;;;;;;;85.25;81.47;;;;;;;16.25;55.88;102031.63;4973793;28;20089;-68
2023/09/25 05:24:51;;;;;;;83.05;79.05;;;;;;;16.25;55.93;102028.09;4969426;28;20431;-67
2023/09/25 05:27:16;;;;;;;85.55;81.65;;;;;;;16.23;56.31;102026.44;4969380;28;20097;-68
2023/09/25 05:29:45;;;;;;;79.68;76.07;;;;;;;16.21;56.01;102025.88;4972401;28;20426;-67
2023/09/25 05:32:10;;;;;;;83.63;79.75;;;;;;;16.21;56.02;102025.03;4967754;28;20043;-67
2023/09/25 05:34:36;;;;;;;83.53;79.82;;;;;;;16.19;55.80;102028.00;4966439;28;20103;-67
2023/09/25 05:37:01;;;;;;;82.35;78.63;;;;;;;16.19;56.08;102032.63;4966138;28;20502;-70
2023/09/25 05:39:27;;;;;;;83.55;79.75;;;;;;;16.17;56.17;102038.31;4968679;28;20086;-68
2023/09/25 05:41:52;;;;;;;82.93;79.18;;;;;;;16.16;56.11;102031.25;4967498;28;20630;-67
2023/09/25 05:44:17;;;;;;;83.63;79.63;;;;;;;16.16;56.38;102031.25;4971918;28;20397;-67
2023/09/25 05:46:43;;;;;;;81.65;77.93;;;;;;;16.15;56.29;102026.88;4968796;28;20043;-68
2023/09/25 05:49:09;;;;;;;86.97;82.97;;;;;;;16.13;56.26;102037.19;4965718;28;20061;-67
2023/09/25 05:51:35;;;;;;;81.05;77.45;;;;;;;16.14;55.94;102040.75;4966554;28;20434;-68
2023/09/25 05:54:00;;;;;;;82.80;79.10;;;;;;;16.13;56.25;102039.91;4967714;28;20030;-69
2023/09/25 05:56:28;;;;;;;82.32;78.63;;;;;;;16.12;55.91;102042.88;4965068;28;20418;-68
2023/09/25 05:58:54;;;;;;;83.07;79.28;;;;;;;16.11;56.39;102041.25;4962289;28;20105;-68
2023/09/25 06:01:19;;;;;;;82.88;78.90;;;;;;;16.09;56.24;102037.94;4964153;28;20043;-67
2023/09/25 06:03:44;;;;;;;83.88;79.93;;;;;;;16.09;56.05;102043.38;4967567;28;20089;-66
2023/09/25 06:06:10;;;;;;;82.85;79.00;;;;;;;16.08;56.12;102044.47;4963183;28;20050;-67
2023/09/25 06:08:35;;;;;;;84.32;80.15;;;;;;;16.07;56.27;102042.81;4966817;28;20062;-68
2023/09/25 06:11:04;;;;;;;83.15;79.25;;;;;;;16.06;56.34;102039.25;4964094;28;20030;-67
2023/09/25 06:13:33;;;;;;;81.63;77.82;;;;;;;16.05;56.01;102025.84;4965486;28;20097;-68
2023/09/25 06:15:58;;;;;;;79.25;75.57;;;;;;;16.04;55.92;102035.94;4964021;28;20027;-66
2023/09/25 06:18:23;;;;;;;81.53;77.60;;;;;;;16.04;56.04;102037.84;4979887;28;20061;-67
2023/09/25 06:20:50;;;;;;;81.47;77.68;;;;;;;16.02;56.22;102040.81;4967600;28;20549;-66
2023/09/25 06:23:16;;;;;;;83.78;79.78;;;;;;;16.02;56.43;102046.25;4964886;28;20533;-67
2023/09/25 06:25:42;;;;;;;81.93;78.28;;;;;;;16.01;56.13;102045.44;4951654;28;20069;-67
2023/09/25 06:28:08;;;;;;;82.65;78.82;;;;;;;15.99;56.09;102044.84;4960287;28;20126;-71
2023/09/25 06:30:34;;;;;;;83.22;79.32;;;;;;;16.00;56.15;102049.25;4962674;28;20043;-68
2023/09/25 06:33:00;;;;;;;80.88;77.07;;;;;;;16.00;56.37;102056.56;4968537;28;20067;-69
2023/09/25 06:35:25;;;;;;;80.28;76.47;;;;;;;15.99;56.10;102052.22;4965166;28;20051;-68
2023/09/25 06:37:51;;;;;;;81.25;77.45;;;;;;;15.98;56.27;102051.41;4966988;28;20060;-68
2023/09/25 06:40:19;;;;;;;81.40;77.60;;;;;;;15.98;56.52;102048.66;4962805;28;20114;-70
2023/09/25 06:42:44;;;;;;;81.82;77.93;;;;;;;15.97;56.12;102048.91;4967192;28;20045;-68
2023/09/25 06:45:10;;;;;;;80.20;76.40;;;;;;;15.96;56.29;102050.81;4970776;28;20366;-68
2023/09/25 06:47:36;;;;;;;83.72;79.93;;;;;;;15.97;56.33;102054.34;4963973;28;20047;-67
2023/09/25 06:50:03;;;;;;;80.63;76.93;;;;;;;15.96;56.47;102052.72;4959902;28;20070;-69
2023/09/25 06:52:28;;;;;;;82.03;77.93;;;;;;;15.95;56.00;102051.91;4965707;28;20942;-69
2023/09/25 06:54:55;;;;;;;82.13;78.30;;;;;;;15.96;56.06;102052.72;4969110;28;20054;-68
2023/09/25 06:57:20;;;;;;;80.07;76.40;;;;;;;15.95;56.08;102056.50;4965253;28;20478;-67
2023/09/25 06:59:45;;;;;;;79.43;75.82;;;;;;;15.95;56.01;102054.63;4968997;28;20051;-66
2023/09/25 07:02:11;;;;;;;82.07;78.28;;;;;;;15.95;56.02;102053.75;4964365;28;20125;-67
2023/09/25 07:04:37;;;;;;;80.20;76.45;;;;;;;15.96;56.22;102060.88;4966297;28;20070;-67
2023/09/25 07:07:03;;;;;;;80.53;76.72;;;;;;;15.95;56.37;102057.34;4965902;28;20050;-67
2023/09/25 07:09:28;;;;;;;77.45;73.93;;;;;;;15.95;56.17;102056.50;4964638;28;20034;-66
2023/09/25 07:11:53;;;;;;;80.68;76.97;;;;;;;15.94;56.21;102052.94;4967275;28;20051;-67
2023/09/25 07:14:19;;;;;;;83.00;78.85;;;;;;;15.95;55.88;102057.34;4965341;28;20042;-67
2023/09/25 07:16:44;;;;;;;82.22;78.10;;;;;;;15.94;55.80;102055.66;4964637;28;20031;-66
2023/09/25 07:19:10;;;;;;;80.93;77.22;;;;;;;15.93;55.93;102058.66;4966302;28;20085;-68
2023/09/25 07:21:36;;;;;;;81.53;77.63;;;;;;;15.92;55.89;102048.81;4961622;28;20042;-67
2023/09/25 07:24:02;;;;;;;80.00;75.95;;;;;;;15.91;56.22;102048.00;4961496;28;20047;-68
2023/09/25 07:26:27;;;;;;;81.43;77.63;;;;;;;15.91;56.14;102048.00;4964094;28;20541;-69
2023/09/25 07:28:53;;;;;;;78.05;74.45;;;;;;;15.91;56.19;102042.53;4967671;28;20125;-67
2023/09/25 07:31:19;;;;;;;81.60;77.70;;;;;;;15.91;56.23;102049.91;4960594;28;20116;-68
2023/09/25 07:33:45;;;;;;;80.60;76.90;;;;;;;15.91;56.18;102041.72;4962702;28;20106;-67
2023/09/25 07:36:11;;;;;;;78.90;75.25;;;;;;;15.89;56.09;102047.41;4963109;28;20126;-69
2023/09/25 07:38:36;;;;;;;80.50;76.60;;;;;;;15.89;56.26;102050.13;4961537;28;20031;-68
2023/09/25 07:41:02;;;;;;;79.13;75.47;;;;;;;15.90;56.04;102053.69;4964013;28;20510;-68
2023/09/25 07:43:29;;;;;;;77.97;74.45;;;;;;;15.90;56.20;102043.63;4965682;28;20046;-68
2023/09/25 07:45:55;;;;;;;78.35;74.75;;;;;;;15.90;56.16;102046.34;4959303;28;20054;-69
2023/09/25 07:48:20;;;;;;;80.05;76.05;;;;;;;15.90;56.18;102051.81;4962349;28;20039;-68
2023/09/25 07:50:46;;;;;;;80.07;76.18;;;;;;;15.91;56.11;102053.44;4959233;28;20105;-68
2023/09/25 07:53:14;;;;;;;79.47;75.78;;;;;;;15.91;56.38;102048.00;4959936;28;20742;-69
2023/09/25 07:55:41;;;;;;;80.75;77.05;;;;;;;15.90;56.02;102057.25;4960039;28;20034;-68
2023/09/25 07:58:06;;;;;;;82.00;78.25;;;;;;;15.91;56.24;102056.16;4964034;28;20035;-67
2023/09/25 08:00:39;;;;;;;81.00;76.40;;;;;;;15.92;56.23;102052.38;4957758;28;20042;-68
2023/09/25 08:03:06;;;;;;;76.65;73.25;;;;;;;15.94;56.12;102049.41;4965440;28;20049;-67
2023/09/25 08:05:32;;;;;;;81.07;77.22;;;;;;;15.94;56.33;102052.94;4961042;28;20042;-68
2023/09/25 08:07:57;;;;;;;82.60;78.47;;;;;;;15.94;56.58;102052.94;4968103;28;20540;-67
2023/09/25 08:10:23;;;;;;;81.30;77.05;;;;;;;15.96;56.25;102047.25;4956497;28;20035;-67
2023/09/25 08:12:48;;;;;;;82.72;78.85;;;;;;;15.97;56.46;102043.44;4967772;28;20039;-68
2023/09/25 08:15:14;;;;;;;78.97;75.32;;;;;;;15.97;56.12;102041.53;4963058;28;20027;-66
2023/09/25 08:17:44;;;;;;;82.97;79.03;;;;;;;15.98;56.50;102047.84;4965927;28;20185;-67
2023/09/25 08:20:22;;;;;;;80.90;77.25;;;;;;;15.99;56.25;102047.59;4963859;28;20133;-67
2023/09/25 08:22:51;;;;;;;80.05;76.40;;;;;;;16.00;56.23;102041.06;4964225;28;20402;-67
2023/09/25 08:25:17;;;;;;;79.68;76.03;;;;;;;16.02;56.16;102044.34;4965648;28;20035;-70
2023/09/25 08:27:43;;;;;;;78.78;75.18;;;;;;;16.05;56.07;102047.66;4967996;28;20061;-69
2023/09/25 08:30:10;;;;;;;79.10;75.53;;;;;;;16.06;56.55;102046.59;4966834;28;20376;-67
2023/09/25 08:32:35;;;;;;;83.35;79.25;;;;;;;16.07;56.59;102037.34;4964549;28;20039;-69
2023/09/25 08:35:02;;;;;;;81.05;76.38;;;;;;;16.07;56.70;102043.63;4972026;28;20093;-67
2023/09/25 08:37:27;;;;;;;79.70;76.07;;;;;;;16.10;56.43;102036.84;4963139;28;20082;-67
2023/09/25 08:39:53;;;;;;;82.05;78.10;;;;;;;16.11;56.65;102041.25;4966002;28;20035;-67
2023/09/25 08:42:21;;;;;;;80.00;76.00;;;;;;;16.13;56.43;102039.09;4958355;28;20043;-68
2023/09/25 08:44:52;;;;;;;80.63;77.00;;;;;;;16.16;56.60;102038.59;4968937;28;20034;-68
2023/09/25 08:47:22;;;;;;;82.13;78.13;;;;;;;16.18;56.34;102039.19;4967771;28;20073;-73
2023/09/25 08:49:51;;;;;;;81.82;78.15;;;;;;;16.21;56.26;102034.03;4966165;28;20030;-68
2023/09/25 08:52:18;;;;;;;81.13;77.07;;;;;;;16.23;56.27;102034.63;4966775;28;20403;-70
2023/09/25 08:54:44;;;;;;;80.95;77.35;;;;;;;16.27;56.11;102034.94;4963120;28;20095;-69
2023/09/25 08:57:11;;;;;;;81.13;77.15;;;;;;;16.29;56.15;102024.63;4953698;28;20039;-68
2023/09/25 08:59:39;;;;;;;85.70;81.47;;;;;;;16.34;56.77;102030.16;4961604;28;20365;-70
2023/09/25 09:02:08;;;;;;;81.78;78.05;;;;;;;16.36;56.17;102033.44;4960801;28;20039;-69
2023/09/25 09:04:35;;;;;;;81.88;78.18;;;;;;;16.39;56.55;102032.94;4970302;28;20540;-68
2023/09/25 09:07:01;;;;;;;85.20;80.80;;;;;;;16.41;56.41;102033.53;4957085;28;20035;-69
2023/09/25 09:09:26;;;;;;;85.07;80.88;;;;;;;16.44;56.40;102034.94;4964116;28;20054;-69
2023/09/25 09:11:52;;;;;;;85.15;81.25;;;;;;;16.48;56.51;102040.69;4968467;28;20129;-68
2023/09/25 09:14:40;;;;;;;84.63;80.72;;;;;;;16.50;56.45;102041.28;4975141;28;20039;-69
2023/09/25 09:17:08;;;;;;;86.85;82.55;;;;;;;16.54;56.55;102039.72;4958593;28;20081;-68
2023/09/25 09:19:37;;;;;;;86.22;82.13;;;;;;;16.56;56.57;102037.56;4960332;28;20118;-67
2023/09/25 09:22:05;;;;;;;83.13;79.43;;;;;;;16.58;56.51;102044.41;4969939;28;20054;-69
2023/09/25 09:24:37;;;;;;;87.72;83.72;;;;;;;16.61;56.69;102043.09;4971952;28;20050;-69
2023/09/25 09:27:07;;;;;;;86.18;82.18;;;;;;;16.64;56.62;102053.50;4968275;28;20510;-68
2023/09/25 09:29:43;;;;;;;90.95;86.75;;;;;;;16.67;56.79;102044.78;4955427;28;20229;-69
2023/09/25 09:32:09;;;;;;;84.60;80.80;;;;;;;16.72;56.93;102041.31;4965684;28;20054;-68
2023/09/25 09:34:36;;;;;;;86.55;82.55;;;;;;;16.75;56.99;102055.25;4963002;28;20039;-68
2023/09/25 09:37:01;;;;;;;86.88;83.00;;;;;;;16.79;56.85;102053.72;4958048;28;20035;-69
2023/09/25 09:39:34;;;;;;;91.20;87.07;;;;;;;16.84;56.52;102061.97;4959277;28;20042;-69
2023/09/25 09:42:03;;;;;;;86.07;82.25;;;;;;;16.89;56.73;102063.13;4966994;28;20059;-69
2023/09/25 09:44:29;;;;;;;90.82;86.32;;;;;;;16.91;56.97;102056.34;4972826;28;20027;-67
2023/09/25 09:46:55;;;;;;;88.40;84.00;;;;;;;16.95;56.80;102062.13;4957421;28;20435;-68
2023/09/25 09:49:24;;;;;;;91.72;87.57;;;;;;;16.98;56.61;102062.41;4961267;28;20043;-68
2023/09/25 09:51:50;;;;;;;;;;;;;;;17.02;56.80;102058.13;4954124;28;20141;-69
2023/09/25 09:54:21;;;;;;;84.18;79.88;;;;;;;17.05;56.70;102063.06;4964051;28;19925;-67
2023/09/25 09:56:47;;;;;;;87.32;83.43;;;;;;;17.08;56.95;102061.72;4965719;28;20062;-67
2023/09/25 09:59:13;;;;;;;89.82;85.32;;;;;;;17.12;56.98;102051.13;4955359;28;20467;-67
2023/09/25 10:01:45;;;;;;;86.18;82.22;;;;;;;17.14;56.75;102047.06;4962239;28;20435;-67
2023/09/25 10:04:11;;;;;;;89.63;85.57;;;;;;;17.18;56.67;102050.94;4968363;28;20027;-69
2023/09/25 10:07:00;;;;;;;94.57;90.30;;;;;;;17.22;56.72;102046.63;4961071;28;20102;-68
2023/09/25 10:09:26;;;;;;;88.60;84.50;;;;;;;17.26;56.55;102047.78;4965284;28;20035;-70
2023/09/25 10:11:54;;;;;;;91.82;87.43;;;;;;;17.29;56.51;102060.91;4970310;28;20385;-68
2023/09/25 10:14:21;;;;;;;94.03;89.70;;;;;;;17.33;56.81;102050.28;4969063;28;20026;-69
2023/09/25 10:16:53;;;;;;;93.45;88.93;;;;;;;17.36;56.82;102049.78;4971226;28;20039;-69
2023/09/25 10:19:20;;;;;;;89.82;85.53;;;;;;;17.39;56.39;102046.53;4960490;28;20031;-69
2023/09/25 10:22:08;;;;;;;95.88;91.47;;;;;;;17.44;56.40;102052.06;4955710;28;20042;-69
2023/09/25 10:24:34;;;;;;;93.65;89.18;;;;;;;17.48;56.37;102053.19;4971041;28;20531;-66
2023/09/25 10:26:59;;;;;;;97.18;92.78;;;;;;;17.54;56.72;102045.88;4973148;28;20041;-66
2023/09/25 10:29:25;;;;;;;99.40;94.90;;;;;;;17.59;56.59;102048.66;4970924;28;20100;-67
2023/09/25 10:31:50;;;;;;;96.38;92.05;;;;;;;17.62;56.17;102031.75;4962370;28;20123;-67
2023/09/25 10:34:16;;;;;;;97.38;93.03;;;;;;;17.67;56.10;102050.91;4971880;28;20081;-67
2023/09/25 10:36:44;;;;;;;96.13;91.63;;;;;;;17.72;56.32;102050.97;4971073;28;20118;-67
2023/09/25 10:39:14;;;;;;;95.05;90.85;;;;;;;17.75;56.47;102044.16;4963130;28;20035;-67
2023/09/25 10:41:41;;;;;;;98.95;94.55;;;;;;;17.79;56.43;102041.72;4953761;28;20031;-67
2023/09/25 10:44:09;;;;;;;97.60;93.35;;;;;;;17.83;56.20;102046.44;4953700;28;20518;-66
2023/09/25 10:46:35;;;;;;;98.22;93.88;;;;;;;17.86;56.55;102053.31;4957983;28;20475;-67
2023/09/25 10:49:00;;;;;;;101.93;97.32;;;;;;;17.89;55.98;102060.97;4969357;28;20035;-68
2023/09/25 10:51:26;;;;;;;99.90;95.25;;;;;;;17.94;56.46;102061.03;4969804;28;20046;-67
2023/09/25 10:53:51;;;;;;;102.15;97.45;;;;;;;17.97;56.51;102066.00;4956652;28;20109;-67
2023/09/25 10:56:17;;;;;;;99.35;94.95;;;;;;;18.01;56.53;102058.91;4964099;28;20039;-67
2023/09/25 10:58:47;;;;;;;101.03;96.55;;;;;;;18.05;56.11;102062.78;4957749;28;20066;-68
2023/09/25 11:01:14;;;;;;;101.85;97.35;;;;;;;18.09;56.26;102055.72;4960662;28;20113;-68
2023/09/25 11:03:40;;;;;;;102.68;98.10;;;;;;;18.14;55.84;102063.09;4952276;28;20097;-66
2023/09/25 11:06:07;;;;;;;103.55;98.97;;;;;;;18.16;56.27;102059.03;4971665;28;20104;-66
2023/09/25 11:08:34;;;;;;;102.38;97.90;;;;;;;18.20;56.25;102067.53;4970159;28;20171;-69